Time,TemperatureF,DewpointF,PressureIn,WindDirection,WindDirectionDegrees,WindSpeedMPH,WindSpeedGustMPH,Humidity,HourlyPrecipIn,Conditions,Clouds,dailyrainin,SoftwareType,DateUTC
2013-11-11 00:00:00,55.3,40.3,24.35,South,191,4.0,5.0,57,0.00,,---,0.00,VWS V14.01,2013-11-11 06:00:00,
2013-11-11 00:05:00,55.1,40.2,24.35,SSW,194,4.0,5.0,57,0.00,,---,0.00,VWS V14.01,2013-11-11 06:05:00,
2013-11-11 00:10:00,55.1,40.2,24.35,SSW,194,5.0,5.0,57,0.00,,---,0.00,VWS V14.01,2013-11-11 06:10:00,
2013-11-11 00:15:00,55.2,39.8,24.35,SSW,194,4.0,6.0,56,0.00,,---,0.00,VWS V14.01,2013-11-11 06:15:00,
2013-11-11 00:20:00,55.3,39.4,24.35,SSW,194,3.0,4.0,55,0.00,,---,0.00,VWS V14.01,2013-11-11 06:20:00,
2013-11-11 00:25:00,55.2,39.3,24.35,SSW,195,2.0,4.0,55,0.00,,---,0.00,VWS V14.01,2013-11-11 06:25:00,
2013-11-11 00:30:00,55.1,39.2,24.35,SSW,195,2.0,3.0,55,0.00,,---,0.00,VWS V14.01,2013-11-11 06:30:00,
2013-11-11 00:35:00,55.0,39.2,24.35,SSW,195,2.0,3.0,55,0.00,,---,0.00,VWS V14.01,2013-11-11 06:35:00,
2013-11-11 00:40:00,55.0,39.2,24.35,SSW,194,3.0,4.0,55,0.00,,---,0.00,VWS V14.01,2013-11-11 06:40:00,
2013-11-11 00:45:00,55.0,38.2,24.35,SSW,195,4.0,5.0,53,0.00,,---,0.00,VWS V14.01,2013-11-11 06:45:00,
2013-11-11 00:50:00,55.1,38.3,24.35,SSW,194,4.0,5.0,53,0.00,,---,0.00,VWS V14.01,2013-11-11 06:50:00,
2013-11-11 00:55:00,55.0,38.2,24.34,SSW,194,5.0,5.0,53,0.00,,---,0.00,VWS V14.01,2013-11-11 06:55:00,
2013-11-11 01:00:00,54.9,38.1,24.34,SSW,192,4.0,4.0,53,0.00,,---,0.00,VWS V14.01,2013-11-11 07:00:00,
2013-11-11 01:05:00,54.7,37.9,24.34,SSW,192,4.0,5.0,53,0.00,,---,0.00,VWS V14.01,2013-11-11 07:05:00,
2013-11-11 01:10:00,54.6,38.3,24.34,SSW,192,4.0,4.0,54,0.00,,---,0.00,VWS V14.01,2013-11-11 07:10:00,
2013-11-11 01:15:00,54.7,37.9,24.34,SSW,192,3.0,5.0,53,0.00,,---,0.00,VWS V14.01,2013-11-11 07:15:00,
2013-11-11 01:20:00,54.5,38.2,24.34,SSW,193,3.0,4.0,54,0.00,,---,0.00,VWS V14.01,2013-11-11 07:20:00,
2013-11-11 01:25:00,54.4,38.1,24.35,SSW,193,3.0,3.0,54,0.00,,---,0.00,VWS V14.01,2013-11-11 07:25:00,
2013-11-11 01:30:00,54.4,37.6,24.35,SSW,193,2.0,2.0,53,0.00,,---,0.00,VWS V14.01,2013-11-11 07:30:00,
2013-11-11 01:35:00,54.5,37.7,24.35,SSW,193,2.0,2.0,53,0.00,,---,0.00,VWS V14.01,2013-11-11 07:35:00,
2013-11-11 01:40:00,54.6,37.8,24.34,SSW,193,2.0,2.0,53,0.00,,---,0.00,VWS V14.01,2013-11-11 07:40:00,
2013-11-11 01:45:00,54.8,37.5,24.34,SSW,193,3.0,3.0,52,0.00,,---,0.00,VWS V14.01,2013-11-11 07:45:00,
2013-11-11 01:50:00,54.8,37.5,24.34,SSW,193,4.0,4.0,52,0.00,,---,0.00,VWS V14.01,2013-11-11 07:50:00,
2013-11-11 01:55:00,54.6,36.8,24.34,SSW,194,4.0,5.0,51,0.00,,---,0.00,VWS V14.01,2013-11-11 07:55:00,
2013-11-11 02:00:00,54.5,36.8,24.34,SSW,196,3.0,3.0,51,0.00,,---,0.00,VWS V14.01,2013-11-11 08:00:00,
2013-11-11 02:05:00,54.4,36.7,24.34,SSW,196,4.0,5.0,51,0.00,,---,0.00,VWS V14.01,2013-11-11 08:05:00,
2013-11-11 02:10:00,54.5,36.8,24.34,SSW,196,4.0,5.0,51,0.00,,---,0.00,VWS V14.01,2013-11-11 08:10:00,
2013-11-11 02:15:00,54.6,36.8,24.34,SSW,196,4.0,4.0,51,0.00,,---,0.00,VWS V14.01,2013-11-11 08:15:00,
2013-11-11 02:20:00,54.6,37.3,24.34,SSW,197,3.0,3.0,52,0.00,,---,0.00,VWS V14.01,2013-11-11 08:20:00,
2013-11-11 02:25:00,54.6,37.3,24.34,SSW,197,2.0,3.0,52,0.00,,---,0.00,VWS V14.01,2013-11-11 08:25:00,
2013-11-11 02:30:00,54.6,36.8,24.34,SSW,197,3.0,4.0,51,0.00,,---,0.00,VWS V14.01,2013-11-11 08:30:00,
2013-11-11 02:35:00,54.5,36.8,24.34,SSW,197,4.0,4.0,51,0.00,,---,0.00,VWS V14.01,2013-11-11 08:35:00,
2013-11-11 02:40:00,54.4,36.7,24.34,SSW,198,4.0,4.0,51,0.00,,---,0.00,VWS V14.01,2013-11-11 08:40:00,
2013-11-11 02:45:00,54.2,37.0,24.34,SSW,198,4.0,4.0,52,0.00,,---,0.00,VWS V14.01,2013-11-11 08:45:00,
2013-11-11 02:50:00,54.1,37.4,24.34,SSW,198,3.0,4.0,53,0.00,,---,0.00,VWS V14.01,2013-11-11 08:50:00,
2013-11-11 02:55:00,54.1,37.8,24.34,SSW,198,4.0,4.0,54,0.00,,---,0.00,VWS V14.01,2013-11-11 08:55:00,
2013-11-11 03:00:00,54.0,38.2,24.34,SSW,192,4.0,5.0,55,0.00,,---,0.00,VWS V14.01,2013-11-11 09:00:00,
2013-11-11 03:05:00,53.8,38.0,24.33,SSW,195,3.0,4.0,55,0.00,,---,0.00,VWS V14.01,2013-11-11 09:05:00,
2013-11-11 03:10:00,53.6,37.8,24.33,SSW,197,4.0,4.0,55,0.00,,---,0.00,VWS V14.01,2013-11-11 09:10:00,
2013-11-11 03:15:00,53.2,37.9,24.33,SSW,199,6.0,7.0,56,0.00,,---,0.00,VWS V14.01,2013-11-11 09:15:00,
2013-11-11 03:20:00,53.1,37.8,24.33,South,188,3.0,5.0,56,0.00,,---,0.00,VWS V14.01,2013-11-11 09:20:00,
2013-11-11 03:25:00,53.0,37.7,24.33,South,190,3.0,3.0,56,0.00,,---,0.00,VWS V14.01,2013-11-11 09:25:00,
2013-11-11 03:30:00,52.9,38.1,24.33,SSW,206,4.0,6.0,57,0.00,,---,0.00,VWS V14.01,2013-11-11 09:30:00,
2013-11-11 03:35:00,52.8,38.5,24.33,SSW,205,5.0,5.0,58,0.00,,---,0.00,VWS V14.01,2013-11-11 09:35:00,
2013-11-11 03:40:00,52.7,38.3,24.33,SSW,211,5.0,5.0,58,0.00,,---,0.00,VWS V14.01,2013-11-11 09:40:00,
2013-11-11 03:45:00,52.6,38.7,24.33,SSW,213,4.0,5.0,59,0.00,,---,0.00,VWS V14.01,2013-11-11 09:45:00,
2013-11-11 03:50:00,52.6,39.5,24.33,SW,216,6.0,6.0,61,0.00,,---,0.00,VWS V14.01,2013-11-11 09:50:00,
2013-11-11 03:55:00,52.8,39.7,24.33,WSW,247,6.0,7.0,61,0.00,,---,0.00,VWS V14.01,2013-11-11 09:55:00,
2013-11-11 04:00:00,53.0,39.1,24.33,SW,232,2.0,2.0,59,0.00,,---,0.00,VWS V14.01,2013-11-11 10:00:00,
2013-11-11 04:05:00,52.9,39.4,24.33,SW,216,3.0,5.0,60,0.00,,---,0.00,VWS V14.01,2013-11-11 10:05:00,
2013-11-11 04:10:00,52.7,39.6,24.33,WSW,237,4.0,5.0,61,0.00,,---,0.00,VWS V14.01,2013-11-11 10:10:00,
2013-11-11 04:15:00,52.6,40.0,24.33,WSW,244,4.0,4.0,62,0.00,,---,0.00,VWS V14.01,2013-11-11 10:15:00,
2013-11-11 04:20:00,52.6,40.4,24.33,WSW,244,4.0,4.0,63,0.00,,---,0.00,VWS V14.01,2013-11-11 10:20:00,
2013-11-11 04:25:00,52.7,40.5,24.33,WSW,244,4.0,4.0,63,0.00,,---,0.00,VWS V14.01,2013-11-11 10:25:00,
2013-11-11 04:30:00,52.8,40.6,24.33,WSW,244,4.0,4.0,63,0.00,,---,0.00,VWS V14.01,2013-11-11 10:30:00,
2013-11-11 04:36:00,53.0,40.8,24.32,WSW,244,3.0,4.0,63,0.00,,---,0.00,VWS V14.01,2013-11-11 10:36:00,
2013-11-11 04:41:00,53.2,40.5,24.33,SSW,199,5.0,5.0,62,0.00,,---,0.00,VWS V14.01,2013-11-11 10:41:00,
2013-11-11 04:46:00,53.2,40.5,24.32,SSW,203,4.0,6.0,62,0.00,,---,0.00,VWS V14.01,2013-11-11 10:46:00,
2013-11-11 04:51:00,53.3,40.6,24.32,SSW,206,7.0,9.0,62,0.00,,---,0.00,VWS V14.01,2013-11-11 10:51:00,
2013-11-11 04:56:00,53.4,40.7,24.32,SSW,194,5.0,6.0,62,0.00,,---,0.00,VWS V14.01,2013-11-11 10:56:00,
2013-11-11 05:01:00,53.2,40.1,24.32,SSW,205,6.0,6.0,61,0.00,,---,0.00,VWS V14.01,2013-11-11 11:01:00,
2013-11-11 05:06:00,53.0,40.3,24.33,SSW,212,7.0,9.0,62,0.00,,---,0.00,VWS V14.01,2013-11-11 11:06:00,
2013-11-11 05:11:00,52.9,40.2,24.32,SW,215,5.0,7.0,62,0.00,,---,0.00,VWS V14.01,2013-11-11 11:11:00,
2013-11-11 05:16:00,52.8,40.6,24.32,SW,218,5.0,6.0,63,0.00,,---,0.00,VWS V14.01,2013-11-11 11:16:00,
2013-11-11 05:21:00,52.8,40.6,24.32,SSW,211,4.0,6.0,63,0.00,,---,0.00,VWS V14.01,2013-11-11 11:21:00,
2013-11-11 05:26:00,52.8,41.0,24.32,SW,216,5.0,5.0,64,0.00,,---,0.00,VWS V14.01,2013-11-11 11:26:00,
2013-11-11 05:31:00,52.9,41.1,24.32,SW,217,5.0,6.0,64,0.00,,---,0.00,VWS V14.01,2013-11-11 11:31:00,
2013-11-11 05:36:00,52.9,41.5,24.32,SW,225,5.0,6.0,65,0.00,,---,0.00,VWS V14.01,2013-11-11 11:36:00,
2013-11-11 05:41:00,52.7,42.1,24.33,SW,218,4.0,6.0,67,0.00,,---,0.00,VWS V14.01,2013-11-11 11:41:00,
2013-11-11 05:46:00,52.6,42.3,24.32,SW,222,5.0,5.0,68,0.00,,---,0.00,VWS V14.01,2013-11-11 11:46:00,
2013-11-11 05:51:00,52.6,42.3,24.33,SW,215,6.0,7.0,68,0.00,,---,0.00,VWS V14.01,2013-11-11 11:51:00,
2013-11-11 05:56:00,52.7,42.1,24.33,SSW,210,6.0,8.0,67,0.00,,---,0.00,VWS V14.01,2013-11-11 11:56:00,
2013-11-11 06:01:00,52.8,42.2,24.33,SSW,203,6.0,7.0,67,0.00,,---,0.00,VWS V14.01,2013-11-11 12:01:00,
2013-11-11 06:06:00,52.8,42.2,24.33,SSW,208,4.0,7.0,67,0.00,,---,0.00,VWS V14.01,2013-11-11 12:06:00,
2013-11-11 06:11:00,52.7,42.1,24.33,SSW,213,4.0,6.0,67,0.00,,---,0.00,VWS V14.01,2013-11-11 12:11:00,
2013-11-11 06:16:00,52.6,42.0,24.34,SSW,213,5.0,5.0,67,0.00,,---,0.00,VWS V14.01,2013-11-11 12:16:00,
2013-11-11 06:21:00,52.5,41.9,24.34,SSW,213,4.0,5.0,67,0.00,,---,0.00,VWS V14.01,2013-11-11 12:21:00,
2013-11-11 06:26:00,52.5,42.3,24.34,SW,220,3.0,5.0,68,0.00,,---,0.00,VWS V14.01,2013-11-11 12:26:00,
2013-11-11 06:31:00,52.4,42.5,24.34,SW,235,5.0,6.0,69,0.00,,---,0.00,VWS V14.01,2013-11-11 12:31:00,
2013-11-11 06:36:00,52.5,42.6,24.34,SW,230,2.0,4.0,69,0.00,,---,0.00,VWS V14.01,2013-11-11 12:36:00,
2013-11-11 06:41:00,52.6,42.7,24.34,WSW,237,4.0,4.0,69,0.00,,---,0.00,VWS V14.01,2013-11-11 12:41:00,
2013-11-11 06:46:00,52.8,42.9,24.34,West,259,4.0,4.0,69,0.00,,---,0.00,VWS V14.01,2013-11-11 12:46:00,
2013-11-11 06:51:00,52.8,42.9,24.34,WSW,250,4.0,4.0,69,0.00,,---,0.00,VWS V14.01,2013-11-11 12:51:00,
2013-11-11 06:56:00,52.8,42.9,24.34,SW,226,5.0,5.0,69,0.00,,---,0.00,VWS V14.01,2013-11-11 12:56:00,
2013-11-11 07:01:00,52.7,42.8,24.34,SW,225,6.0,6.0,69,0.00,,---,0.00,VWS V14.01,2013-11-11 13:01:00,
2013-11-11 07:06:00,52.9,43.0,24.35,SW,226,4.0,5.0,69,0.00,,---,0.00,VWS V14.01,2013-11-11 13:06:00,
2013-11-11 07:11:00,53.1,43.2,24.35,SW,226,4.0,5.0,69,0.00,,---,0.00,VWS V14.01,2013-11-11 13:11:00,
2013-11-11 07:16:00,53.3,43.0,24.34,SW,226,3.0,5.0,68,0.00,,---,0.00,VWS V14.01,2013-11-11 13:16:00,
2013-11-11 07:21:00,53.4,43.1,24.35,SW,225,4.0,5.0,68,0.00,,---,0.00,VWS V14.01,2013-11-11 13:21:00,
2013-11-11 07:26:00,53.2,42.9,24.35,SW,225,4.0,6.0,68,0.00,,---,0.00,VWS V14.01,2013-11-11 13:26:00,
2013-11-11 07:31:00,53.3,43.0,24.35,SW,225,5.0,6.0,68,0.00,,---,0.00,VWS V14.01,2013-11-11 13:31:00,
2013-11-11 07:36:00,53.3,43.0,24.35,SW,225,4.0,5.0,68,0.00,,---,0.00,VWS V14.01,2013-11-11 13:36:00,
2013-11-11 07:41:00,53.3,43.4,24.35,SW,225,4.0,6.0,69,0.00,,---,0.00,VWS V14.01,2013-11-11 13:41:00,
2013-11-11 07:46:00,53.5,43.2,24.35,SW,228,2.0,3.0,68,0.00,,---,0.00,VWS V14.01,2013-11-11 13:46:00,
2013-11-11 07:51:00,53.6,42.9,24.35,WSW,244,2.0,2.0,67,0.00,,---,0.00,VWS V14.01,2013-11-11 13:51:00,
2013-11-11 07:56:00,53.7,42.6,24.35,WSW,245,2.0,3.0,66,0.00,,---,0.00,VWS V14.01,2013-11-11 13:56:00,
2013-11-11 08:01:00,54.1,42.6,24.36,WSW,245,2.0,3.0,65,0.00,,---,0.00,VWS V14.01,2013-11-11 14:01:00,
2013-11-11 08:06:00,54.3,42.8,24.36,SSW,194,4.0,4.0,65,0.00,,---,0.00,VWS V14.01,2013-11-11 14:06:00,
2013-11-11 08:11:00,54.1,43.4,24.36,SSW,192,2.0,3.0,67,0.00,,---,0.00,VWS V14.01,2013-11-11 14:11:00,
2013-11-11 08:16:00,53.9,43.6,24.37,South,190,5.0,5.0,68,0.00,,---,0.00,VWS V14.01,2013-11-11 14:16:00,
2013-11-11 08:21:00,53.9,44.0,24.36,SSW,199,7.0,7.0,69,0.00,,---,0.00,VWS V14.01,2013-11-11 14:21:00,
2013-11-11 08:26:00,54.2,44.6,24.37,SSW,198,3.0,6.0,70,0.00,,---,0.00,VWS V14.01,2013-11-11 14:26:00,
2013-11-11 08:31:00,54.6,45.0,24.37,South,187,6.0,6.0,70,0.00,,---,0.00,VWS V14.01,2013-11-11 14:31:00,
2013-11-11 08:36:00,54.9,45.7,24.37,South,190,5.0,8.0,71,0.00,,---,0.00,VWS V14.01,2013-11-11 14:36:00,
2013-11-11 08:41:00,54.9,46.1,24.37,SSW,193,4.0,5.0,72,0.00,,---,0.00,VWS V14.01,2013-11-11 14:41:00,
2013-11-11 08:46:00,55.1,46.6,24.37,SSE,168,7.0,7.0,73,0.00,,---,0.00,VWS V14.01,2013-11-11 14:46:00,
2013-11-11 08:51:00,55.3,46.8,24.38,South,180,4.0,6.0,73,0.00,,---,0.00,VWS V14.01,2013-11-11 14:51:00,
2013-11-11 08:56:00,55.6,46.7,24.38,SSW,202,6.0,6.0,72,0.00,,---,0.00,VWS V14.01,2013-11-11 14:56:00,
2013-11-11 09:01:00,55.8,46.5,24.38,South,187,3.0,5.0,71,0.00,,---,0.00,VWS V14.01,2013-11-11 15:01:00,
2013-11-11 09:06:00,56.4,46.8,24.38,South,171,3.0,7.0,70,0.00,,---,0.00,VWS V14.01,2013-11-11 15:06:00,
2013-11-11 09:11:00,57.2,47.5,24.38,SE,142,4.0,4.0,70,0.00,,---,0.00,VWS V14.01,2013-11-11 15:11:00,
2013-11-11 09:16:00,57.8,47.3,24.38,SE,145,4.0,6.0,68,0.00,,---,0.00,VWS V14.01,2013-11-11 15:16:00,
2013-11-11 09:21:00,58.1,47.2,24.38,SSE,147,9.0,9.0,67,0.00,,---,0.00,VWS V14.01,2013-11-11 15:21:00,
2013-11-11 09:26:00,58.2,46.5,24.38,SSE,161,6.0,7.0,65,0.00,,---,0.00,VWS V14.01,2013-11-11 15:26:00,
2013-11-11 09:31:00,58.2,46.9,24.38,SSE,163,2.0,8.0,66,0.00,,---,0.00,VWS V14.01,2013-11-11 15:31:00,
2013-11-11 09:36:00,58.2,46.9,24.38,South,191,8.0,9.0,66,0.00,,---,0.00,VWS V14.01,2013-11-11 15:36:00,
2013-11-11 09:41:00,58.4,47.5,24.38,South,173,9.0,10.0,67,0.00,,---,0.00,VWS V14.01,2013-11-11 15:41:00,
2013-11-11 09:46:00,58.9,47.6,24.39,SSE,159,6.0,9.0,66,0.00,,---,0.00,VWS V14.01,2013-11-11 15:46:00,
2013-11-11 09:51:00,59.0,47.3,24.39,SSE,166,5.0,11.0,65,0.00,,---,0.00,VWS V14.01,2013-11-11 15:51:00,
2013-11-11 09:56:00,59.5,47.7,24.39,South,172,8.0,12.0,65,0.00,,---,0.00,VWS V14.01,2013-11-11 15:56:00,
2013-11-11 10:01:00,59.5,47.3,24.39,SE,145,7.0,10.0,64,0.00,,---,0.00,VWS V14.01,2013-11-11 16:01:00,
2013-11-11 10:06:00,59.7,47.1,24.39,ESE,111,4.0,7.0,63,0.00,,---,0.00,VWS V14.01,2013-11-11 16:06:00,
2013-11-11 10:11:00,59.9,47.7,24.39,SSE,154,8.0,9.0,64,0.00,,---,0.00,VWS V14.01,2013-11-11 16:11:00,
2013-11-11 10:16:00,59.7,47.5,24.39,SE,126,7.0,10.0,64,0.00,,---,0.00,VWS V14.01,2013-11-11 16:16:00,
2013-11-11 10:21:00,60.3,47.7,24.39,SE,142,5.0,6.0,63,0.00,,---,0.00,VWS V14.01,2013-11-11 16:21:00,
2013-11-11 10:26:00,60.7,47.6,24.39,SSE,166,7.0,8.0,62,0.00,,---,0.00,VWS V14.01,2013-11-11 16:26:00,
2013-11-11 10:31:00,61.2,47.7,24.39,SE,138,9.0,11.0,61,0.00,,---,0.00,VWS V14.01,2013-11-11 16:31:00,
2013-11-11 10:36:00,61.1,47.6,24.39,SSE,154,3.0,7.0,61,0.00,,---,0.00,VWS V14.01,2013-11-11 16:36:00,
2013-11-11 10:41:00,61.7,47.7,24.38,SSE,168,7.0,7.0,60,0.00,,---,0.00,VWS V14.01,2013-11-11 16:41:00,
2013-11-11 10:46:00,62.0,47.5,24.38,SE,140,8.0,11.0,59,0.00,,---,0.00,VWS V14.01,2013-11-11 16:46:00,
2013-11-11 10:51:00,62.3,47.3,24.38,SSE,167,7.0,8.0,58,0.00,,---,0.00,VWS V14.01,2013-11-11 16:51:00,
2013-11-11 10:56:00,62.7,47.7,24.38,SSW,208,7.0,11.0,58,0.00,,---,0.00,VWS V14.01,2013-11-11 16:56:00,
2013-11-11 11:01:00,63.3,47.8,24.38,SSE,164,8.0,10.0,57,0.00,,---,0.00,VWS V14.01,2013-11-11 17:01:00,
2013-11-11 11:06:00,63.8,47.8,24.37,South,175,3.0,8.0,56,0.00,,---,0.00,VWS V14.01,2013-11-11 17:06:00,
2013-11-11 11:11:00,64.1,47.1,24.37,SSE,149,5.0,11.0,54,0.00,,---,0.00,VWS V14.01,2013-11-11 17:11:00,
2013-11-11 11:16:00,64.3,47.3,24.37,SE,140,9.0,10.0,54,0.00,,---,0.00,VWS V14.01,2013-11-11 17:16:00,
2013-11-11 11:21:00,63.9,47.4,24.37,South,182,8.0,11.0,55,0.00,,---,0.00,VWS V14.01,2013-11-11 17:21:00,
2013-11-11 11:26:00,63.9,47.0,24.37,SSW,201,4.0,11.0,54,0.00,,---,0.00,VWS V14.01,2013-11-11 17:26:00,
2013-11-11 11:31:00,63.8,46.8,24.37,SSW,195,7.0,9.0,54,0.00,,---,0.00,VWS V14.01,2013-11-11 17:31:00,
2013-11-11 11:36:00,64.1,47.1,24.37,SSE,159,7.0,9.0,54,0.00,,---,0.00,VWS V14.01,2013-11-11 17:36:00,
2013-11-11 11:41:00,64.5,47.0,24.36,South,173,7.0,10.0,53,0.00,,---,0.00,VWS V14.01,2013-11-11 17:41:00,
2013-11-11 11:46:00,64.3,46.8,24.36,SSE,155,5.0,11.0,53,0.00,,---,0.00,VWS V14.01,2013-11-11 17:46:00,
2013-11-11 11:51:00,64.6,47.1,24.36,South,175,11.0,12.0,53,0.00,,---,0.00,VWS V14.01,2013-11-11 17:51:00,
2013-11-11 11:56:00,64.6,46.1,24.36,SSW,213,10.0,10.0,51,0.00,,---,0.00,VWS V14.01,2013-11-11 17:56:00,
2013-11-11 12:01:00,65.0,47.0,24.36,ESE,110,11.0,12.0,52,0.00,,---,0.00,VWS V14.01,2013-11-11 18:01:00,
2013-11-11 12:06:00,65.2,46.6,24.35,SSE,168,6.0,9.0,51,0.00,,---,0.00,VWS V14.01,2013-11-11 18:06:00,
2013-11-11 12:11:00,65.7,46.6,24.35,SSE,149,5.0,5.0,50,0.00,,---,0.00,VWS V14.01,2013-11-11 18:11:00,
2013-11-11 12:16:00,66.1,46.4,24.35,SSE,164,8.0,10.0,49,0.00,,---,0.00,VWS V14.01,2013-11-11 18:16:00,
2013-11-11 12:21:00,66.5,46.2,24.35,ESE,106,3.0,8.0,48,0.00,,---,0.00,VWS V14.01,2013-11-11 18:21:00,
2013-11-11 12:26:00,66.7,46.4,24.34,South,171,3.0,5.0,48,0.00,,---,0.00,VWS V14.01,2013-11-11 18:26:00,
2013-11-11 12:31:00,66.8,45.9,24.34,South,178,8.0,8.0,47,0.00,,---,0.00,VWS V14.01,2013-11-11 18:31:00,
2013-11-11 12:36:00,66.5,46.2,24.34,SSE,150,5.0,9.0,48,0.00,,---,0.00,VWS V14.01,2013-11-11 18:36:00,
2013-11-11 12:41:00,66.3,46.0,24.34,SE,143,5.0,7.0,48,0.00,,---,0.00,VWS V14.01,2013-11-11 18:41:00,
2013-11-11 12:46:00,66.3,45.5,24.33,SE,142,5.0,6.0,47,0.00,,---,0.00,VWS V14.01,2013-11-11 18:46:00,
2013-11-11 12:51:00,66.2,46.0,24.33,SE,135,7.0,11.0,48,0.00,,---,0.00,VWS V14.01,2013-11-11 18:51:00,
2013-11-11 12:56:00,66.1,45.9,24.33,ESE,102,9.0,10.0,48,0.00,,---,0.00,VWS V14.01,2013-11-11 18:56:00,
2013-11-11 13:01:00,66.6,45.8,24.33,South,179,9.0,10.0,47,0.00,,---,0.00,VWS V14.01,2013-11-11 19:01:00,
2013-11-11 13:06:00,67.1,46.2,24.33,South,174,5.0,8.0,47,0.00,,---,0.00,VWS V14.01,2013-11-11 19:06:00,
2013-11-11 13:11:00,67.6,45.5,24.32,South,183,5.0,6.0,45,0.00,,---,0.00,VWS V14.01,2013-11-11 19:11:00,
2013-11-11 13:16:00,67.3,45.2,24.32,South,170,5.0,7.0,45,0.00,,---,0.00,VWS V14.01,2013-11-11 19:16:00,
2013-11-11 13:21:00,67.7,45.6,24.32,SE,130,7.0,10.0,45,0.00,,---,0.00,VWS V14.01,2013-11-11 19:21:00,
2013-11-11 13:26:00,67.8,45.7,24.31,SE,136,4.0,10.0,45,0.00,,---,0.00,VWS V14.01,2013-11-11 19:26:00,
2013-11-11 13:31:00,67.7,45.6,24.31,SE,124,5.0,5.0,45,0.00,,---,0.00,VWS V14.01,2013-11-11 19:31:00,
2013-11-11 13:36:00,68.3,46.2,24.31,ENE,73,5.0,10.0,45,0.00,,---,0.00,VWS V14.01,2013-11-11 19:36:00,
2013-11-11 13:41:00,68.3,45.0,24.31,South,190,14.0,14.0,43,0.00,,---,0.00,VWS V14.01,2013-11-11 19:41:00,
2013-11-11 13:46:00,68.2,45.5,24.30,SE,128,9.0,11.0,44,0.00,,---,0.00,VWS V14.01,2013-11-11 19:46:00,
2013-11-11 13:51:00,68.2,44.9,24.30,South,187,6.0,9.0,43,0.00,,---,0.00,VWS V14.01,2013-11-11 19:51:00,
2013-11-11 13:56:00,68.3,45.0,24.30,SW,223,4.0,8.0,43,0.00,,---,0.00,VWS V14.01,2013-11-11 19:56:00,
2013-11-11 14:01:00,68.6,44.6,24.30,SSE,148,4.0,4.0,42,0.00,,---,0.00,VWS V14.01,2013-11-11 20:01:00,
2013-11-11 14:06:00,68.9,44.9,24.30,SSW,197,10.0,12.0,42,0.00,,---,0.00,VWS V14.01,2013-11-11 20:06:00,
2013-11-11 14:11:00,68.5,44.5,24.30,SSE,157,6.0,9.0,42,0.00,,---,0.00,VWS V14.01,2013-11-11 20:11:00,
2013-11-11 14:16:00,68.3,44.3,24.29,SSE,166,6.0,7.0,42,0.00,,---,0.00,VWS V14.01,2013-11-11 20:16:00,
2013-11-11 14:21:00,68.4,44.4,24.29,SE,140,7.0,9.0,42,0.00,,---,0.00,VWS V14.01,2013-11-11 20:21:00,
2013-11-11 14:26:00,68.4,44.4,24.29,SE,140,6.0,12.0,42,0.00,,---,0.00,VWS V14.01,2013-11-11 20:26:00,
2013-11-11 14:32:00,68.7,44.7,24.29,SSW,199,13.0,14.0,42,0.00,,---,0.00,VWS V14.01,2013-11-11 20:32:00,
2013-11-11 14:37:00,68.7,44.1,24.29,ESE,105,5.0,7.0,41,0.00,,---,0.00,VWS V14.01,2013-11-11 20:37:00,
2013-11-11 14:42:00,68.8,44.2,24.28,ESE,116,14.0,14.0,41,0.00,,---,0.00,VWS V14.01,2013-11-11 20:42:00,
2013-11-11 14:47:00,68.5,44.5,24.29,SSE,164,5.0,10.0,42,0.00,,---,0.00,VWS V14.01,2013-11-11 20:47:00,
2013-11-11 14:52:00,68.9,44.9,24.28,SE,140,8.0,11.0,42,0.00,,---,0.00,VWS V14.01,2013-11-11 20:52:00,
2013-11-11 14:57:00,69.4,44.7,24.29,ESE,115,8.0,13.0,41,0.00,,---,0.00,VWS V14.01,2013-11-11 20:57:00,
2013-11-11 15:02:00,68.6,44.0,24.29,SE,141,6.0,8.0,41,0.00,,---,0.00,VWS V14.01,2013-11-11 21:02:00,
2013-11-11 15:07:00,68.8,44.2,24.28,ENE,63,11.0,11.0,41,0.00,,---,0.00,VWS V14.01,2013-11-11 21:07:00,
2013-11-11 15:12:00,69.7,44.3,24.28,ESE,121,18.0,18.0,40,0.00,,---,0.00,VWS V14.01,2013-11-11 21:12:00,
2013-11-11 15:17:00,68.8,44.2,24.28,ESE,102,12.0,13.0,41,0.00,,---,0.00,VWS V14.01,2013-11-11 21:17:00,
2013-11-11 15:22:00,69.0,44.3,24.29,NE,53,11.0,11.0,41,0.00,,---,0.00,VWS V14.01,2013-11-11 21:22:00,
2013-11-11 15:27:00,68.6,43.3,24.29,ENE,64,6.0,11.0,40,0.00,,---,0.00,VWS V14.01,2013-11-11 21:27:00,
2013-11-11 15:33:00,68.1,43.5,24.29,ENE,67,10.0,14.0,41,0.00,,---,0.00,VWS V14.01,2013-11-11 21:33:00,
2013-11-11 15:38:00,68.2,43.6,24.29,NNE,27,10.0,16.0,41,0.00,,---,0.00,VWS V14.01,2013-11-11 21:38:00,
2013-11-11 15:43:00,67.3,43.5,24.29,NE,45,8.0,12.0,42,0.00,,---,0.00,VWS V14.01,2013-11-11 21:43:00,
2013-11-11 15:48:00,66.7,42.9,24.29,NE,37,8.0,14.0,42,0.00,,---,0.00,VWS V14.01,2013-11-11 21:48:00,
2013-11-11 15:53:00,65.9,43.4,24.29,NE,42,4.0,9.0,44,0.00,,---,0.00,VWS V14.01,2013-11-11 21:53:00,
2013-11-11 15:58:00,65.9,43.4,24.29,NE,55,9.0,9.0,44,0.00,,---,0.00,VWS V14.01,2013-11-11 21:58:00,
2013-11-11 16:03:00,65.4,42.9,24.29,NNE,16,8.0,9.0,44,0.00,,---,0.00,VWS V14.01,2013-11-11 22:03:00,
2013-11-11 16:08:00,64.7,42.9,24.29,NE,35,4.0,6.0,45,0.00,,---,0.00,VWS V14.01,2013-11-11 22:08:00,
2013-11-11 16:13:00,64.8,43.6,24.30,ENE,57,7.0,8.0,46,0.00,,---,0.00,VWS V14.01,2013-11-11 22:13:00,
2013-11-11 16:18:00,65.1,43.3,24.30,ENE,57,7.0,7.0,45,0.00,,---,0.00,VWS V14.01,2013-11-11 22:18:00,
2013-11-11 16:23:00,65.0,43.2,24.30,ENE,60,4.0,5.0,45,0.00,,---,0.00,VWS V14.01,2013-11-11 22:23:00,
2013-11-11 16:28:00,65.3,42.8,24.30,NE,46,8.0,9.0,44,0.00,,---,0.00,VWS V14.01,2013-11-11 22:28:00,
2013-11-11 16:33:00,64.8,42.4,24.30,NE,52,10.0,10.0,44,0.00,,---,0.00,VWS V14.01,2013-11-11 22:33:00,
2013-11-11 16:38:00,63.9,42.7,24.30,NE,52,7.0,9.0,46,0.00,,---,0.00,VWS V14.01,2013-11-11 22:38:00,
2013-11-11 16:43:00,63.2,42.1,24.30,NE,54,7.0,10.0,46,0.00,,---,0.00,VWS V14.01,2013-11-11 22:43:00,
2013-11-11 16:48:00,62.8,42.3,24.30,NE,50,9.0,10.0,47,0.00,,---,0.00,VWS V14.01,2013-11-11 22:48:00,
2013-11-11 16:53:00,62.6,42.7,24.30,NE,53,9.0,9.0,48,0.00,,---,0.00,VWS V14.01,2013-11-11 22:53:00,
2013-11-11 16:58:00,62.4,42.5,24.30,NE,44,10.0,10.0,48,0.00,,---,0.00,VWS V14.01,2013-11-11 22:58:00,
2013-11-11 17:03:00,62.1,42.7,24.31,ENE,60,4.0,5.0,49,0.00,,---,0.00,VWS V14.01,2013-11-11 23:03:00,
2013-11-11 17:08:00,61.8,42.5,24.31,North,2,4.0,6.0,49,0.00,,---,0.00,VWS V14.01,2013-11-11 23:08:00,
2013-11-11 17:14:00,61.4,42.6,24.31,NE,54,2.0,7.0,50,0.00,,---,0.00,VWS V14.01,2013-11-11 23:14:00,
2013-11-11 17:19:00,61.1,42.3,24.31,NNE,20,6.0,8.0,50,0.00,,---,0.00,VWS V14.01,2013-11-11 23:19:00,
2013-11-11 17:24:00,60.7,42.5,24.31,NNE,29,7.0,9.0,51,0.00,,---,0.00,VWS V14.01,2013-11-11 23:24:00,
2013-11-11 17:29:00,60.4,42.7,24.32,NE,34,5.0,8.0,52,0.00,,---,0.00,VWS V14.01,2013-11-11 23:29:00,
2013-11-11 17:34:00,60.2,42.5,24.32,NE,36,7.0,8.0,52,0.00,,---,0.00,VWS V14.01,2013-11-11 23:34:00,
2013-11-11 17:39:00,59.9,42.2,24.32,NE,39,5.0,9.0,52,0.00,,---,0.00,VWS V14.01,2013-11-11 23:39:00,
2013-11-11 17:44:00,59.6,42.5,24.32,NE,45,7.0,8.0,53,0.00,,---,0.00,VWS V14.01,2013-11-11 23:44:00,
2013-11-11 17:49:00,59.4,42.3,24.32,NNE,18,6.0,7.0,53,0.00,,---,0.00,VWS V14.01,2013-11-11 23:49:00,
2013-11-11 17:54:00,59.1,42.5,24.33,NE,43,6.0,8.0,54,0.00,,---,0.00,VWS V14.01,2013-11-11 23:54:00,
2013-11-11 17:59:00,58.8,42.2,24.33,NNE,26,6.0,7.0,54,0.00,,---,0.00,VWS V14.01,2013-11-11 23:59:00,
2013-11-11 18:04:00,58.7,42.1,24.33,NNE,19,6.0,8.0,54,0.00,,---,0.00,VWS V14.01,2013-11-12 00:04:00,
2013-11-11 18:09:00,58.5,42.4,24.33,NNE,22,2.0,4.0,55,0.00,,---,0.00,VWS V14.01,2013-11-12 00:09:00,
2013-11-11 18:14:00,58.2,42.1,24.33,NNE,12,3.0,3.0,55,0.00,,---,0.00,VWS V14.01,2013-11-12 00:14:00,
2013-11-11 18:19:00,58.0,41.9,24.33,North,10,3.0,6.0,55,0.00,,---,0.00,VWS V14.01,2013-11-12 00:19:00,
2013-11-11 18:24:00,57.8,42.2,24.33,North,8,2.0,4.0,56,0.00,,---,0.00,VWS V14.01,2013-11-12 00:24:00,
2013-11-11 18:29:00,57.5,41.9,24.33,North,6,2.0,4.0,56,0.00,,---,0.00,VWS V14.01,2013-11-12 00:29:00,
2013-11-11 18:34:00,57.1,41.6,24.34,North,6,2.0,5.0,56,0.00,,---,0.00,VWS V14.01,2013-11-12 00:34:00,
2013-11-11 18:39:00,56.9,41.8,24.34,North,3,2.0,5.0,57,0.00,,---,0.00,VWS V14.01,2013-11-12 00:39:00,
2013-11-11 18:44:00,56.8,41.8,24.34,North,360,4.0,5.0,57,0.00,,---,0.00,VWS V14.01,2013-11-12 00:44:00,
2013-11-11 18:49:00,56.8,41.8,24.34,North,360,4.0,5.0,57,0.00,,---,0.00,VWS V14.01,2013-11-12 00:49:00,
2013-11-11 18:54:00,56.7,41.7,24.34,North,360,4.0,6.0,57,0.00,,---,0.00,VWS V14.01,2013-11-12 00:54:00,
2013-11-11 18:59:00,56.5,41.5,24.35,North,360,4.0,6.0,57,0.00,,---,0.00,VWS V14.01,2013-11-12 00:59:00,
2013-11-11 19:04:00,56.3,41.7,24.35,NNE,17,6.0,8.0,58,0.00,,---,0.00,VWS V14.01,2013-11-12 01:04:00,
2013-11-11 19:09:00,56.3,41.7,24.35,North,360,4.0,5.0,58,0.00,,---,0.00,VWS V14.01,2013-11-12 01:09:00,
2013-11-11 19:14:00,56.3,41.7,24.35,North,360,4.0,5.0,58,0.00,,---,0.00,VWS V14.01,2013-11-12 01:14:00,
2013-11-11 19:19:00,56.1,41.5,24.35,North,358,4.0,5.0,58,0.00,,---,0.00,VWS V14.01,2013-11-12 01:19:00,
2013-11-11 19:24:00,56.0,41.5,24.35,North,350,2.0,5.0,58,0.00,,---,0.00,VWS V14.01,2013-11-12 01:24:00,
2013-11-11 19:29:00,55.9,41.3,24.35,NNW,343,4.0,4.0,58,0.00,,---,0.00,VWS V14.01,2013-11-12 01:29:00,
2013-11-11 19:34:00,55.9,41.3,24.36,North,350,2.0,3.0,58,0.00,,---,0.00,VWS V14.01,2013-11-12 01:34:00,
2013-11-11 19:39:00,55.8,41.3,24.36,North,359,2.0,4.0,58,0.00,,---,0.00,VWS V14.01,2013-11-12 01:39:00,
2013-11-11 19:44:00,55.9,41.3,24.36,North,358,4.0,4.0,58,0.00,,---,0.00,VWS V14.01,2013-11-12 01:44:00,
2013-11-11 19:49:00,56.0,41.5,24.36,North,358,3.0,4.0,58,0.00,,---,0.00,VWS V14.01,2013-11-12 01:49:00,
2013-11-11 19:54:00,55.9,41.3,24.36,North,353,4.0,4.0,58,0.00,,---,0.00,VWS V14.01,2013-11-12 01:54:00,
2013-11-11 19:59:00,55.9,41.3,24.36,North,351,2.0,3.0,58,0.00,,---,0.00,VWS V14.01,2013-11-12 01:59:00,
2013-11-11 20:04:00,55.8,41.3,24.36,North,355,3.0,3.0,58,0.00,,---,0.00,VWS V14.01,2013-11-12 02:04:00,
2013-11-11 20:09:00,55.8,41.3,24.36,North,355,3.0,4.0,58,0.00,,---,0.00,VWS V14.01,2013-11-12 02:09:00,
2013-11-11 20:14:00,55.7,41.2,24.36,North,355,3.0,4.0,58,0.00,,---,0.00,VWS V14.01,2013-11-12 02:14:00,
2013-11-11 20:19:00,55.4,41.3,24.37,North,355,2.0,4.0,59,0.00,,---,0.00,VWS V14.01,2013-11-12 02:19:00,
2013-11-11 20:24:00,55.2,41.1,24.37,North,351,3.0,3.0,59,0.00,,---,0.00,VWS V14.01,2013-11-12 02:24:00,
2013-11-11 20:29:00,55.2,41.1,24.37,North,351,2.0,3.0,59,0.00,,---,0.00,VWS V14.01,2013-11-12 02:29:00,
2013-11-11 20:34:00,55.4,41.3,24.37,North,355,3.0,4.0,59,0.00,,---,0.00,VWS V14.01,2013-11-12 02:34:00,
2013-11-11 20:39:00,55.5,41.4,24.37,North,358,3.0,4.0,59,0.00,,---,0.00,VWS V14.01,2013-11-12 02:39:00,
2013-11-11 20:44:00,55.5,41.4,24.37,North,358,4.0,5.0,59,0.00,,---,0.00,VWS V14.01,2013-11-12 02:44:00,
2013-11-11 20:49:00,55.5,41.4,24.37,North,359,2.0,4.0,59,0.00,,---,0.00,VWS V14.01,2013-11-12 02:49:00,
2013-11-11 20:54:00,55.4,41.3,24.37,North,359,3.0,4.0,59,0.00,,---,0.00,VWS V14.01,2013-11-12 02:54:00,
2013-11-11 20:59:00,55.3,41.2,24.38,North,360,3.0,3.0,59,0.00,,---,0.00,VWS V14.01,2013-11-12 02:59:00,
2013-11-11 21:04:00,55.2,41.1,24.38,North,10,3.0,5.0,59,0.00,,---,0.00,VWS V14.01,2013-11-12 03:04:00,
2013-11-11 21:09:00,55.1,41.0,24.38,NNE,12,3.0,4.0,59,0.00,,---,0.00,VWS V14.01,2013-11-12 03:09:00,
2013-11-11 21:14:00,55.1,41.0,24.38,North,8,3.0,3.0,59,0.00,,---,0.00,VWS V14.01,2013-11-12 03:14:00,
2013-11-11 21:19:00,55.1,41.0,24.38,NNE,16,3.0,4.0,59,0.00,,---,0.00,VWS V14.01,2013-11-12 03:19:00,
2013-11-11 21:24:00,55.0,41.0,24.38,NNE,32,3.0,5.0,59,0.00,,---,0.00,VWS V14.01,2013-11-12 03:24:00,
2013-11-11 21:29:00,54.9,40.9,24.38,NE,35,3.0,4.0,59,0.00,,---,0.00,VWS V14.01,2013-11-12 03:29:00,
2013-11-11 21:34:00,54.7,40.7,24.38,NE,39,3.0,4.0,59,0.00,,---,0.00,VWS V14.01,2013-11-12 03:34:00,
2013-11-11 21:39:00,54.6,40.6,24.38,NE,37,2.0,3.0,59,0.00,,---,0.00,VWS V14.01,2013-11-12 03:39:00,
2013-11-11 21:44:00,54.7,40.7,24.39,NE,35,1.0,3.0,59,0.00,,---,0.00,VWS V14.01,2013-11-12 03:44:00,
2013-11-11 21:49:00,54.7,40.7,24.39,NNE,33,2.0,3.0,59,0.00,,---,0.00,VWS V14.01,2013-11-12 03:49:00,
2013-11-11 21:54:00,54.6,40.6,24.39,North,360,3.0,4.0,59,0.00,,---,0.00,VWS V14.01,2013-11-12 03:54:00,
2013-11-11 21:59:00,54.5,40.5,24.39,North,360,2.0,2.0,59,0.00,,---,0.00,VWS V14.01,2013-11-12 03:59:00,
2013-11-11 22:04:00,54.5,40.5,24.39,North,10,2.0,3.0,59,0.00,,---,0.00,VWS V14.01,2013-11-12 04:04:00,
2013-11-11 22:09:00,54.6,40.6,24.39,North,359,0.0,0.0,59,0.00,,---,0.00,VWS V14.01,2013-11-12 04:09:00,
2013-11-11 22:14:00,54.6,40.1,24.40,North,359,0.0,0.0,58,0.00,,---,0.00,VWS V14.01,2013-11-12 04:14:00,
2013-11-11 22:19:00,54.7,40.2,24.40,North,359,0.0,0.0,58,0.00,,---,0.00,VWS V14.01,2013-11-12 04:19:00,
2013-11-11 22:24:00,54.8,40.3,24.40,North,359,0.0,0.0,58,0.00,,---,0.00,VWS V14.01,2013-11-12 04:24:00,
2013-11-11 22:29:00,54.8,40.8,24.40,NNE,14,2.0,3.0,59,0.00,,---,0.00,VWS V14.01,2013-11-12 04:29:00,
2013-11-11 22:34:00,54.9,40.9,24.40,North,10,2.0,2.0,59,0.00,,---,0.00,VWS V14.01,2013-11-12 04:34:00,
2013-11-11 22:39:00,55.0,42.2,24.40,North,359,1.0,3.0,62,0.00,,---,0.00,VWS V14.01,2013-11-12 04:39:00,
2013-11-11 22:44:00,55.0,41.8,24.41,North,352,3.0,3.0,61,0.00,,---,0.00,VWS V14.01,2013-11-12 04:44:00,
2013-11-11 22:49:00,54.9,42.1,24.40,North,359,1.0,3.0,62,0.00,,---,0.00,VWS V14.01,2013-11-12 04:49:00,
2013-11-11 22:54:00,54.9,42.6,24.41,North,5,3.0,3.0,63,0.00,,---,0.00,VWS V14.01,2013-11-12 04:54:00,
2013-11-11 22:59:00,55.0,42.7,24.40,North,360,1.0,1.0,63,0.00,,---,0.00,VWS V14.01,2013-11-12 04:59:00,
2013-11-11 23:01:00,55.0,43.5,24.41,North,360,1.0,2.0,65,0.00,,---,0.00,VWS V14.01,2013-11-12 05:01:00,
2013-11-11 23:02:00,55.0,43.1,24.41,North,360,1.0,2.0,64,0.00,,---,0.00,VWS V14.01,2013-11-12 05:02:00,
2013-11-11 23:03:00,55.0,43.1,24.41,North,360,1.0,2.0,64,0.00,,---,0.00,VWS V14.01,2013-11-12 05:03:00,
2013-11-11 23:08:00,55.0,43.1,24.41,North,360,0.0,0.0,64,0.00,,---,0.00,VWS V14.01,2013-11-12 05:08:00,
2013-11-11 23:13:00,54.8,42.9,24.40,North,358,3.0,3.0,64,0.00,,---,0.00,VWS V14.01,2013-11-12 05:13:00,
2013-11-11 23:18:00,54.8,43.3,24.40,North,353,0.0,2.0,65,0.00,,---,0.00,VWS V14.01,2013-11-12 05:18:00,
2013-11-11 23:23:00,54.8,43.7,24.41,North,358,2.0,3.0,66,0.00,,---,0.00,VWS V14.01,2013-11-12 05:23:00,
2013-11-11 23:28:00,54.8,43.3,24.40,North,358,0.0,2.0,65,0.00,,---,0.00,VWS V14.01,2013-11-12 05:28:00,
2013-11-11 23:33:00,54.8,43.7,24.40,North,358,0.0,3.0,66,0.00,,---,0.00,VWS V14.01,2013-11-12 05:33:00,
2013-11-11 23:38:00,54.8,43.3,24.40,North,358,3.0,4.0,65,0.00,,---,0.00,VWS V14.01,2013-11-12 05:38:00,
2013-11-11 23:43:00,54.8,43.3,24.40,North,358,0.0,3.0,65,0.00,,---,0.00,VWS V14.01,2013-11-12 05:43:00,
2013-11-11 23:48:00,54.9,43.4,24.40,North,358,0.0,2.0,65,0.00,,---,0.00,VWS V14.01,2013-11-12 05:48:00,
2013-11-11 23:53:00,54.9,43.4,24.41,North,354,3.0,3.0,65,0.00,,---,0.00,VWS V14.01,2013-11-12 05:53:00,
2013-11-11 23:58:00,54.7,43.2,24.40,North,350,2.0,3.0,65,0.00,,---,0.00,VWS V14.01,2013-11-12 05:58:00,